Warning: Javascript must be enabled to use all the features on this page!


Page Loading - Please Wait...

* We've detected you're using a mobile device. Find our Next Generation Station Page here.
Click to hideNews Bulletins

Peak Streamflow for Montana

Click to hide state-specific text

Questions or concerns about USGS data and data products in Montana and Wyoming can be directed to the Wyoming-Montana Water Science Center Data Management Section.


USGS 06309080 Deep Creek near Kinsey MT

Custer County, Montana
Hydrologic Unit Code 10100001
Latitude  46°33'24.34", Longitude 105°37'14.48" NAD83
Drainage area 11.6  square miles
Gage datum 2,320 feet above NGVD29
Output formats
Table
Graph
Tab-separated file
peakfq (watstore) format
Reselect output format
Water
Year
Date Gage
Height
(feet)
Stream-
flow
(cfs)
1962 1962-07-14 7.80 828
1963 1963-06-05 16.77 2,420
1964 1964-08-29 13.83 1,830
1965 1965-07-11 10.79 1,300
1966 1966-06-03 3.61 260
1967 1967-06-12 3.93 300
1968 1968-06-09 6.90 700
1969 1969-04-26 5.91 550
1970 1970-07-14 5.89 550
1971 1971-06-09 3.02 200
1972 1972-06-09 16.78 2,430
1973 1973-04-20 10.70 1,300
1974 1974-05-29 3.58 250
1975 1975-05-05 7.45 760
1976 1976-07-08 3.68 250
1977 1977-02-18   1.00
1978 1978-03-21 6.48 650
1979 1979-07-25   30.02
1980 1980-07-13 1.46 54.0
1981 1981-08-03 4.27 280
1982 1982-02-16 2.72 140
1983 1983-05-12 2.26 108
1984 1984-08-02 2.96 162
1985 1985-09-02 3.37 200
1986 1986-02-25 5.55 440
1987 1987-08-14 5.65 450
1988 1988-08-12 5.03 370
1989 1989-03-10   5.002
1990 1990-03-11   50.02
1991 1991-06-25 23.14 3,490
1992 1992-07-05 11.356 530
1993 1993-08-06 15.33 1,180
1994 1994-03-02 12.81 760
1995 1995-05-13 8.19 171
1996 1996-07-20 9.16 266
1997 1997-07-17 11.35 530
1998 1998-09-19 9.97 356
1999 1998-10-11 8.89 238
2000 2000-07-11 10.76 450
2001 2001-07-18 30.22 3,500
2002 2002-08-21 9.61 313
2003 2003-03-20 9.31 280
2004 2004-05-23 8.27 179
2005 2005-06-20 13.10 815
2006 2006-03-30 9.03 253
2007 2007-06-07 19.75 2,000
2008 2008-05-04 7.94 150
2009 2009-05-04 8.51 201
2010 2010-07-21 14.55 1,050
2011 2011-05-10 14.00 960
2012 2012-05-26   10.02
2013 2013-09-09 13.52 882
2014 2014-06-27 12.582 726
2015 2015-05-30 8.51 201
2016 2016-09-24 8.30 181
2017 2017 7.114,Bm 87.94,Bm
2018 2018-06-22 12.58 726
2019 2019-07-08 8.742 223
2020 2020-06-30 9.17 266
2021 2021-04-26 9.21 270
2022 2022-04-23 9.44 294
2023 2023-08-22 11.73 587
?
  Peak Gage-Height Qualification Codes.
?
  Peak Streamflow Qualification Codes.